Time;durP1;ratioP1;P1;durP2;ratioP2;P2;SDS_P1;SDS_P2;PMS_P1;PMS_P2;Temp;Humidity;BMP_temperature;BMP_pressure;BME280_temperature;BME280_humidity;BME280_pressure;Samples;Min_cycle;Max_cycle;Signal;HPM_P1;HPM_P2
2023/09/19 00:00:01;;;;;;;2.60;2.40;;;16.70;99.90;;;;;;5039363;28;20421;-75
2023/09/19 00:02:29;;;;;;;3.50;2.73;;;16.70;99.90;;;;;;5037815;28;20447;-75
2023/09/19 00:04:55;;;;;;;3.47;2.47;;;16.70;99.90;;;;;;5039389;28;20438;-76
2023/09/19 00:07:22;;;;;;;3.67;2.50;;;16.80;99.90;;;;;;5039725;28;20427;-76
2023/09/19 00:09:49;;;;;;;6.13;3.17;;;16.90;99.90;;;;;;5039607;28;20493;-75
2023/09/19 00:12:16;;;;;;;3.13;2.30;;;16.90;99.90;;;;;;5040680;28;20463;-76
2023/09/19 00:14:42;;;;;;;3.10;2.57;;;16.90;99.90;;;;;;5042301;28;20925;-75
2023/09/19 00:17:10;;;;;;;3.30;2.70;;;17.00;99.90;;;;;;5037986;28;20485;-75
2023/09/19 00:19:37;;;;;;;4.03;2.40;;;17.00;99.90;;;;;;5041815;28;20465;-76
2023/09/19 00:22:04;;;;;;;2.50;2.30;;;17.10;99.90;;;;;;5037545;28;20513;-77
2023/09/19 00:24:31;;;;;;;4.80;2.60;;;17.00;99.90;;;;;;5041839;28;20429;-75
2023/09/19 00:26:58;;;;;;;3.90;2.80;;;17.00;99.90;;;;;;5034017;28;20552;-75
2023/09/19 00:29:28;;;;;;;3.50;2.40;;;17.00;99.90;;;;;;5037763;28;20453;-75
2023/09/19 00:31:55;;;;;;;3.90;3.30;;;17.00;99.90;;;;;;5038417;28;20982;-75
2023/09/19 00:34:24;;;;;;;3.27;2.43;;;17.00;99.90;;;;;;5041394;28;20431;-76
2023/09/19 00:36:52;;;;;;;2.90;2.40;;;17.00;99.90;;;;;;5038865;28;20537;-76
2023/09/19 00:39:20;;;;;;;2.33;2.17;;;17.00;99.90;;;;;;5040323;28;20548;-75
2023/09/19 00:41:47;;;;;;;5.30;2.40;;;17.00;99.90;;;;;;5038674;28;20455;-75
2023/09/19 00:44:15;;;;;;;4.30;2.63;;;17.00;99.90;;;;;;5039262;28;20453;-75
2023/09/19 00:46:42;;;;;;;4.13;2.67;;;17.00;99.90;;;;;;5036046;28;20453;-75
2023/09/19 00:49:10;;;;;;;6.13;2.60;;;17.10;99.90;;;;;;5037726;28;20424;-76
2023/09/19 00:51:45;;;;;;;3.13;2.83;;;17.10;99.90;;;;;;5038103;28;20459;-75
2023/09/19 00:54:17;;;;;;;2.63;2.43;;;17.10;99.90;;;;;;5037092;28;20494;-75
2023/09/19 00:56:45;;;;;;;4.43;3.13;;;17.10;99.90;;;;;;5041535;28;20473;-75
2023/09/19 00:59:12;;;;;;;2.60;2.20;;;17.10;99.90;;;;;;5042498;28;20458;-75
2023/09/19 01:01:40;;;;;;;7.50;2.70;;;17.10;99.90;;;;;;5042599;28;20534;-75
2023/09/19 01:04:07;;;;;;;4.10;2.97;;;17.10;99.90;;;;;;5041300;28;20477;-75
2023/09/19 01:06:34;;;;;;;3.83;2.30;;;17.10;99.90;;;;;;5042171;28;20912;-75
2023/09/19 01:09:03;;;;;;;2.67;2.37;;;17.10;99.90;;;;;;5040069;28;20457;-74
2023/09/19 01:11:39;;;;;;;2.60;2.40;;;17.10;99.90;;;;;;5035857;28;20754;-75
2023/09/19 01:14:16;;;;;;;3.20;2.83;;;17.10;99.90;;;;;;5037393;28;20553;-75
2023/09/19 01:16:50;;;;;;;4.30;2.63;;;17.10;99.90;;;;;;5039234;28;20524;-75
2023/09/19 01:19:48;;;;;;;4.40;2.27;;;17.10;99.90;;;;;;5041712;28;20827;-75
2023/09/19 01:22:24;;;;;;;4.23;2.47;;;17.10;99.90;;;;;;5037793;28;20465;-75
2023/09/19 01:25:21;;;;;;;2.50;2.30;;;17.00;99.90;;;;;;5037707;28;20450;-75
2023/09/19 01:28:08;;;;;;;4.43;2.63;;;17.00;99.90;;;;;;5040330;28;20423;-75
2023/09/19 01:30:39;;;;;;;3.80;2.13;;;17.00;99.90;;;;;;5040017;28;20514;-75
2023/09/19 01:33:08;;;;;;;2.80;2.40;;;17.00;99.90;;;;;;5039542;28;21008;-74
2023/09/19 01:35:38;;;;;;;3.03;2.60;;;17.10;99.90;;;;;;5037816;28;20442;-74
2023/09/19 01:38:06;;;;;;;3.90;2.80;;;17.10;99.90;;;;;;5039592;28;20844;-75
2023/09/19 01:40:35;;;;;;;5.50;2.80;;;17.00;99.90;;;;;;5036709;28;20485;-75
2023/09/19 01:43:11;;;;;;;5.40;2.80;;;17.10;99.90;;;;;;5039628;28;20440;-75
2023/09/19 01:45:48;;;;;;;3.30;2.27;;;17.00;99.90;;;;;;5038966;28;20486;-74
2023/09/19 01:48:22;;;;;;;4.30;2.50;;;17.10;99.90;;;;;;5039747;28;20457;-75
2023/09/19 01:50:56;;;;;;;3.83;2.53;;;17.00;99.90;;;;;;5040610;28;20422;-74
2023/09/19 01:53:28;;;;;;;5.93;3.17;;;17.00;99.90;;;;;;5039560;28;20453;-75
2023/09/19 01:55:56;;;;;;;4.67;2.43;;;17.00;99.90;;;;;;5039461;28;20500;-74
2023/09/19 01:58:28;;;;;;;6.43;2.63;;;17.00;99.90;;;;;;5038107;28;20478;-75
2023/09/19 02:00:59;;;;;;;2.47;2.27;;;16.90;99.90;;;;;;5038702;28;20424;-75
2023/09/19 02:03:28;;;;;;;5.27;2.43;;;16.90;99.90;;;;;;5039999;28;20544;-75
2023/09/19 02:05:55;;;;;;;4.30;2.40;;;16.80;99.90;;;;;;5038718;28;20901;-75
2023/09/19 02:08:24;;;;;;;2.73;2.53;;;16.70;99.90;;;;;;5038966;28;20931;-74
2023/09/19 02:10:52;;;;;;;3.80;2.50;;;16.70;99.90;;;;;;5038531;28;20428;-75
2023/09/19 02:13:20;;;;;;;5.00;2.30;;;16.60;99.90;;;;;;5035955;28;20479;-74
2023/09/19 02:15:47;;;;;;;4.90;2.47;;;16.60;99.90;;;;;;5038830;28;20908;-74
2023/09/19 02:18:15;;;;;;;5.20;2.43;;;16.60;99.90;;;;;;5038614;28;20432;-74
2023/09/19 02:20:42;;;;;;;3.17;2.20;;;16.50;99.90;;;;;;5040529;28;20459;-75
2023/09/19 02:23:10;;;;;;;4.03;3.07;;;16.50;99.90;;;;;;5038080;28;21039;-75
2023/09/19 02:25:37;;;;;;;3.63;2.40;;;16.50;99.90;;;;;;5035240;28;20424;-75
2023/09/19 02:28:05;;;;;;;15.80;3.27;;;16.40;99.90;;;;;;5037422;28;20438;-75
2023/09/19 02:30:32;;;;;;;2.50;2.30;;;16.40;99.90;;;;;;5037640;28;20825;-74
2023/09/19 02:33:01;;;;;;;8.40;2.87;;;16.40;99.90;;;;;;5030561;28;20452;-75
2023/09/19 02:35:32;;;;;;;3.63;2.00;;;16.40;99.90;;;;;;5039779;28;20868;-75
2023/09/19 02:37:59;;;;;;;2.53;2.07;;;16.40;99.90;;;;;;5032463;28;20526;-75
2023/09/19 02:40:27;;;;;;;8.60;3.10;;;16.40;99.90;;;;;;5039013;28;20579;-75
2023/09/19 02:42:56;;;;;;;5.37;2.40;;;16.40;99.90;;;;;;5038296;28;20451;-74
2023/09/19 02:45:23;;;;;;;2.37;2.17;;;16.30;99.90;;;;;;5037792;28;20469;-75
2023/09/19 02:47:50;;;;;;;2.47;2.27;;;16.30;99.90;;;;;;5036972;28;20942;-74
2023/09/19 02:50:17;;;;;;;2.40;1.90;;;16.20;99.90;;;;;;5037293;28;20428;-74
2023/09/19 02:52:47;;;;;;;3.03;2.07;;;16.20;99.90;;;;;;5037740;28;20449;-75
2023/09/19 02:55:17;;;;;;;5.53;2.37;;;16.10;99.90;;;;;;5036835;28;20453;-75
2023/09/19 02:57:47;;;;;;;2.90;2.57;;;16.10;99.90;;;;;;5038415;28;20926;-75
2023/09/19 03:00:14;;;;;;;5.37;2.50;;;16.10;99.90;;;;;;5036284;28;20434;-75
2023/09/19 03:02:41;;;;;;;6.13;2.93;;;16.00;99.90;;;;;;5033224;28;20451;-75
2023/09/19 03:05:11;;;;;;;3.20;2.40;;;16.00;99.90;;;;;;5036295;28;20442;-75
2023/09/19 03:07:38;;;;;;;3.10;2.50;;;16.00;99.90;;;;;;5038904;28;20423;-75
2023/09/19 03:10:07;;;;;;;4.40;2.60;;;16.00;99.90;;;;;;5033905;28;20455;-75
2023/09/19 03:12:34;;;;;;;13.37;3.10;;;15.90;99.90;;;;;;5036013;28;20466;-75
2023/09/19 03:15:01;;;;;;;4.70;2.40;;;15.80;99.90;;;;;;5035973;28;20527;-75
2023/09/19 03:17:28;;;;;;;4.67;2.70;;;15.70;99.90;;;;;;5037715;28;20467;-75
2023/09/19 03:19:54;;;;;;;3.17;2.53;;;15.70;99.90;;;;;;5033173;28;20445;-75
2023/09/19 03:22:21;;;;;;;4.43;2.87;;;15.60;99.90;;;;;;5036951;28;20869;-75
2023/09/19 03:24:48;;;;;;;4.00;2.90;;;15.50;99.90;;;;;;5036652;28;20866;-75
2023/09/19 03:27:16;;;;;;;6.47;2.67;;;15.50;99.90;;;;;;5035833;28;20957;-75
2023/09/19 03:29:43;;;;;;;7.20;3.00;;;15.40;99.90;;;;;;5035782;28;20799;-75
2023/09/19 03:32:10;;;;;;;4.00;2.87;;;15.40;99.90;;;;;;5035728;28;20443;-75
2023/09/19 03:34:38;;;;;;;3.10;2.53;;;15.40;99.90;;;;;;5037503;28;20442;-75
2023/09/19 03:37:05;;;;;;;4.37;3.17;;;15.30;99.90;;;;;;5035099;28;20977;-75
2023/09/19 03:39:31;;;;;;;3.77;2.70;;;15.30;99.90;;;;;;5035021;28;20461;-75
2023/09/19 03:41:58;;;;;;;3.30;3.00;;;15.30;99.90;;;;;;5029206;28;20448;-75
2023/09/19 03:44:26;;;;;;;4.50;2.77;;;15.20;99.90;;;;;;5035685;28;20420;-75
2023/09/19 03:46:55;;;;;;;7.97;2.93;;;15.20;99.90;;;;;;5034443;28;20574;-75
2023/09/19 03:49:22;;;;;;;7.27;2.50;;;15.20;99.90;;;;;;5034790;28;20427;-74
2023/09/19 03:51:48;;;;;;;2.90;2.60;;;15.20;99.90;;;;;;5034139;28;20448;-75
2023/09/19 03:54:16;;;;;;;4.40;3.00;;;15.10;99.90;;;;;;5034249;28;20453;-75
2023/09/19 03:56:43;;;;;;;6.83;2.60;;;15.10;99.90;;;;;;5033992;28;21057;-75
2023/09/19 03:59:10;;;;;;;3.13;2.23;;;15.10;99.90;;;;;;5034903;28;20785;-75
2023/09/19 04:01:39;;;;;;;8.60;3.10;;;15.20;99.90;;;;;;5032764;28;20484;-75
2023/09/19 04:04:08;;;;;;;3.90;2.70;;;15.20;99.90;;;;;;5034696;28;20468;-75
2023/09/19 04:06:35;;;;;;;4.20;2.60;;;15.20;99.90;;;;;;5035978;28;20992;-75
2023/09/19 04:09:03;;;;;;;5.47;2.40;;;15.20;99.90;;;;;;5033898;28;20520;-75
2023/09/19 04:11:30;;;;;;;5.73;2.23;;;15.20;99.90;;;;;;5034943;28;20493;-75
2023/09/19 04:13:56;;;;;;;3.40;2.30;;;15.20;99.90;;;;;;5033909;28;20445;-75
2023/09/19 04:16:23;;;;;;;4.67;2.50;;;15.20;99.90;;;;;;5033783;28;20442;-75
2023/09/19 04:18:51;;;;;;;6.93;2.40;;;15.20;99.90;;;;;;5034429;28;20460;-75
2023/09/19 04:21:19;;;;;;;6.70;2.47;;;15.20;99.90;;;;;;5033354;28;20469;-75
2023/09/19 04:23:46;;;;;;;2.40;2.20;;;15.20;99.90;;;;;;5033691;28;20449;-75
2023/09/19 04:26:12;;;;;;;4.33;2.60;;;15.20;99.90;;;;;;5038707;28;20415;-75
2023/09/19 04:28:40;;;;;;;3.23;2.10;;;15.30;99.90;;;;;;5033260;28;20441;-75
2023/09/19 04:31:08;;;;;;;4.00;2.47;;;15.30;99.90;;;;;;5035092;28;20460;-75
2023/09/19 04:33:35;;;;;;;11.03;2.33;;;15.30;99.90;;;;;;5039532;28;20830;-75
2023/09/19 04:36:05;;;;;;;5.03;2.47;;;15.30;99.90;;;;;;5037796;28;20428;-75
2023/09/19 04:38:31;;;;;;;5.73;2.50;;;15.40;99.90;;;;;;5038529;28;20509;-75
2023/09/19 04:40:59;;;;;;;4.27;2.27;;;15.40;99.90;;;;;;5034556;28;21194;-75
2023/09/19 04:43:26;;;;;;;6.10;2.10;;;15.40;99.90;;;;;;5037904;28;20424;-75
2023/09/19 04:45:55;;;;;;;7.40;2.10;;;15.50;99.90;;;;;;5037686;28;20483;-75
2023/09/19 04:48:23;;;;;;;4.10;2.40;;;15.50;99.90;;;;;;5037327;28;20506;-75
2023/09/19 04:50:50;;;;;;;4.93;2.07;;;15.60;99.90;;;;;;5038020;28;20539;-75
2023/09/19 04:53:20;;;;;;;3.10;2.27;;;15.60;99.90;;;;;;5036939;28;20871;-75
2023/09/19 04:55:50;;;;;;;8.93;2.40;;;15.60;99.90;;;;;;5037877;28;20434;-75
2023/09/19 04:58:17;;;;;;;6.53;2.50;;;15.60;99.90;;;;;;5035883;28;20554;-75
2023/09/19 05:00:44;;;;;;;6.50;2.43;;;15.60;99.90;;;;;;5038304;28;20476;-75
2023/09/19 05:03:11;;;;;;;5.90;2.20;;;15.50;99.90;;;;;;5031898;28;20462;-76
2023/09/19 05:05:38;;;;;;;9.83;2.70;;;15.50;99.90;;;;;;5036915;28;20440;-76
2023/09/19 05:08:06;;;;;;;3.97;2.23;;;15.50;99.90;;;;;;5036012;28;20539;-76
2023/09/19 05:10:34;;;;;;;6.13;2.40;;;15.50;99.90;;;;;;5036541;28;20460;-75
2023/09/19 05:13:01;;;;;;;6.70;2.57;;;15.50;99.90;;;;;;5028709;28;20546;-75
2023/09/19 05:15:28;;;;;;;2.60;1.93;;;15.50;99.90;;;;;;5036986;28;20424;-76
2023/09/19 05:17:55;;;;;;;6.97;2.07;;;15.50;99.90;;;;;;5035893;28;20463;-75
2023/09/19 05:20:29;;;;;;;3.37;1.93;;;15.50;99.90;;;;;;5035912;28;20536;-75
2023/09/19 05:22:59;;;;;;;5.30;2.50;;;15.60;99.90;;;;;;5034455;28;21021;-75
2023/09/19 05:25:29;;;;;;;2.43;2.13;;;15.60;99.90;;;;;;5036161;28;20424;-75
2023/09/19 05:27:58;;;;;;;6.07;2.40;;;15.60;99.90;;;;;;5036045;28;20453;-75
2023/09/19 05:30:27;;;;;;;4.80;2.37;;;15.50;99.90;;;;;;5036067;28;20416;-74
2023/09/19 05:32:53;;;;;;;5.63;2.33;;;15.50;99.90;;;;;;5034697;28;20909;-75
2023/09/19 05:35:21;;;;;;;3.40;2.13;;;15.50;99.90;;;;;;5035493;28;20428;-75
2023/09/19 05:37:50;;;;;;;4.70;2.30;;;15.50;99.90;;;;;;5035462;28;20467;-75
2023/09/19 05:40:17;;;;;;;6.87;2.50;;;15.50;99.90;;;;;;5035367;28;20918;-75
2023/09/19 05:42:44;;;;;;;2.73;2.40;;;15.40;99.90;;;;;;5032784;28;20473;-75
2023/09/19 05:45:13;;;;;;;2.83;2.50;;;15.40;99.90;;;;;;5031856;28;20986;-75
2023/09/19 05:47:41;;;;;;;7.93;2.70;;;15.40;99.90;;;;;;5040886;28;20412;-75
2023/09/19 05:50:09;;;;;;;5.03;2.57;;;15.30;99.90;;;;;;5053961;28;20404;-75
2023/09/19 05:52:37;;;;;;;7.17;2.43;;;15.30;99.90;;;;;;5051810;28;20480;-75
2023/09/19 05:55:05;;;;;;;3.63;2.30;;;15.30;99.90;;;;;;5036209;28;20544;-76
2023/09/19 05:57:32;;;;;;;3.40;2.10;;;15.40;99.90;;;;;;5040573;28;20470;-75
2023/09/19 05:59:59;;;;;;;3.93;2.53;;;15.30;99.90;;;;;;5027634;28;20522;-75
2023/09/19 06:02:28;;;;;;;4.47;2.27;;;15.30;99.90;;;;;;5034175;28;20984;-75
2023/09/19 06:04:55;;;;;;;7.10;2.50;;;15.30;99.90;;;;;;5034712;28;20486;-75
2023/09/19 06:07:23;;;;;;;4.20;2.30;;;15.30;99.90;;;;;;5034162;28;20420;-75
2023/09/19 06:09:50;;;;;;;4.33;2.40;;;15.30;99.90;;;;;;5033997;28;20458;-75
2023/09/19 06:12:17;;;;;;;4.63;2.30;;;15.30;99.90;;;;;;5033539;28;21086;-75
2023/09/19 06:14:44;;;;;;;5.17;2.47;;;15.40;99.90;;;;;;5034689;28;20431;-75
2023/09/19 06:17:11;;;;;;;6.13;2.47;;;15.40;99.90;;;;;;5033485;28;20440;-75
2023/09/19 06:19:39;;;;;;;4.37;2.43;;;15.40;99.90;;;;;;5034257;28;20861;-75
2023/09/19 06:22:06;;;;;;;6.60;2.33;;;15.50;99.90;;;;;;5033810;28;20534;-75
2023/09/19 06:24:32;;;;;;;4.13;2.40;;;15.50;99.90;;;;;;5034170;28;20499;-75
2023/09/19 06:27:01;;;;;;;6.13;2.60;;;15.60;99.90;;;;;;5025865;28;20424;-71
2023/09/19 06:29:27;;;;;;;4.07;2.53;;;15.70;99.90;;;;;;5032237;28;20451;-72
2023/09/19 06:31:54;;;;;;;4.97;3.03;;;15.80;99.90;;;;;;5030231;28;20448;-71
2023/09/19 06:34:22;;;;;;;9.17;2.47;;;16.00;99.90;;;;;;5038103;28;20973;-71
2023/09/19 06:36:52;;;;;;;9.63;3.20;;;16.10;99.90;;;;;;5033933;28;20547;-72
2023/09/19 06:39:19;;;;;;;4.53;2.47;;;16.30;99.90;;;;;;5030806;28;20493;-72
2023/09/19 06:41:46;;;;;;;5.90;2.67;;;16.40;99.90;;;;;;5032177;28;20447;-71
2023/09/19 06:44:12;;;;;;;3.43;2.20;;;16.50;99.90;;;;;;5031924;28;20436;-71
2023/09/19 06:46:40;;;;;;;6.40;2.70;;;16.50;99.90;;;;;;5033389;28;20511;-71
2023/09/19 06:52:30;;;;;;;5.30;2.53;;;16.60;99.90;;;;;;5022106;28;20960;-71
2023/09/19 06:54:57;;;;;;;4.07;2.30;;;16.70;99.90;;;;;;5034850;28;20743;-69
2023/09/19 06:57:24;;;;;;;8.77;2.20;;;16.80;99.90;;;;;;5035975;28;20455;-70
2023/09/19 06:59:51;;;;;;;5.43;2.40;;;16.90;99.90;;;;;;5036433;28;20455;-71
2023/09/19 07:02:18;;;;;;;6.10;2.30;;;17.10;99.90;;;;;;5037928;28;20473;-71
2023/09/19 07:04:45;;;;;;;6.77;2.60;;;17.40;99.90;;;;;;5038666;28;21227;-70
2023/09/19 07:07:13;;;;;;;7.53;2.30;;;17.60;99.90;;;;;;5038416;28;20523;-70
2023/09/19 07:09:42;;;;;;;4.33;2.87;;;17.50;99.90;;;;;;5038607;28;20424;-71
2023/09/19 07:12:09;;;;;;;2.87;2.10;;;17.50;99.90;;;;;;5037317;28;20481;-71
2023/09/19 07:14:35;;;;;;;3.73;2.23;;;17.30;99.90;;;;;;5037328;28;20519;-71
2023/09/19 07:17:03;;;;;;;4.60;2.40;;;17.30;99.90;;;;;;5036710;28;20480;-73
2023/09/19 07:19:31;;;;;;;7.20;2.30;;;17.20;99.90;;;;;;5038049;28;20463;-72
2023/09/19 07:21:59;;;;;;;5.90;2.60;;;17.00;99.90;;;;;;5037232;28;21020;-73
2023/09/19 07:24:27;;;;;;;5.07;2.43;;;17.10;99.90;;;;;;5038117;28;20464;-72
2023/09/19 07:26:55;;;;;;;4.47;2.20;;;17.00;99.90;;;;;;5037714;28;20480;-72
2023/09/19 07:29:22;;;;;;;5.27;2.20;;;17.00;99.90;;;;;;5037993;28;20225;-73
2023/09/19 07:31:49;;;;;;;3.20;1.93;;;16.90;99.90;;;;;;5037471;28;21066;-72
2023/09/19 07:34:16;;;;;;;3.67;2.30;;;16.90;99.90;;;;;;5037895;28;20427;-72
2023/09/19 07:36:43;;;;;;;6.30;2.10;;;16.90;99.90;;;;;;5038004;28;20457;-73
2023/09/19 07:39:10;;;;;;;4.80;2.50;;;16.90;99.90;;;;;;5036974;28;21025;-72
2023/09/19 07:41:37;;;;;;;4.63;2.40;;;16.90;99.90;;;;;;5037293;28;20505;-72
2023/09/19 07:44:05;;;;;;;5.13;2.10;;;16.90;99.90;;;;;;5037918;28;20427;-73
2023/09/19 07:46:32;;;;;;;4.50;2.53;;;17.00;99.90;;;;;;5039109;28;20491;-72
2023/09/19 07:48:59;;;;;;;4.20;2.57;;;16.90;99.90;;;;;;5038225;28;20445;-72
2023/09/19 07:51:26;;;;;;;15.40;2.60;;;16.90;99.90;;;;;;5037113;28;20599;-73
2023/09/19 07:53:54;;;;;;;7.40;3.23;;;16.80;99.90;;;;;;5037903;28;20427;-72
2023/09/19 07:56:22;;;;;;;7.93;2.37;;;16.80;99.90;;;;;;5036962;28;20461;-73
2023/09/19 07:58:49;;;;;;;7.43;2.57;;;16.80;99.90;;;;;;5037758;28;20994;-73
2023/09/19 08:01:17;;;;;;;3.50;2.20;;;16.90;99.90;;;;;;5037301;28;20480;-73
2023/09/19 08:03:44;;;;;;;6.33;2.20;;;17.00;99.90;;;;;;5037369;28;20436;-72
2023/09/19 08:06:11;;;;;;;8.13;2.37;;;17.10;99.90;;;;;;5036074;28;20424;-72
2023/09/19 08:08:38;;;;;;;4.00;2.23;;;17.20;99.90;;;;;;5036840;28;20419;-72
2023/09/19 08:11:11;;;;;;;4.20;2.50;;;17.20;99.90;;;;;;5036760;28;20440;-72
2023/09/19 08:13:41;;;;;;;7.90;2.77;;;17.30;99.90;;;;;;5036665;28;20471;-72
2023/09/19 08:16:07;;;;;;;7.53;2.83;;;17.40;99.90;;;;;;5037129;28;20463;-73
2023/09/19 08:18:35;;;;;;;2.40;1.97;;;17.50;99.90;;;;;;5037272;28;20547;-71
2023/09/19 08:21:02;;;;;;;7.20;2.67;;;17.60;99.90;;;;;;5037150;28;20460;-72
2023/09/19 08:23:29;;;;;;;5.30;2.40;;;17.80;99.90;;;;;;5037659;28;20448;-73
2023/09/19 08:25:58;;;;;;;6.77;2.90;;;17.80;99.90;;;;;;5036216;28;20456;-72
2023/09/19 08:28:24;;;;;;;2.50;2.03;;;18.00;99.90;;;;;;5036852;28;20441;-72
2023/09/19 08:30:52;;;;;;;4.33;2.20;;;18.30;99.90;;;;;;5037822;28;20459;-72
2023/09/19 08:33:19;;;;;;;4.73;2.70;;;18.20;99.90;;;;;;5036151;28;20969;-72
2023/09/19 08:35:47;;;;;;;4.73;2.33;;;18.40;99.90;;;;;;5038772;28;20464;-73
2023/09/19 08:38:14;;;;;;;5.80;2.30;;;18.70;99.90;;;;;;5036822;28;20846;-72
2023/09/19 08:40:42;;;;;;;7.40;2.40;;;18.80;99.90;;;;;;5035998;28;20456;-72
2023/09/19 08:43:09;;;;;;;8.07;2.50;;;18.80;99.90;;;;;;5036816;28;20543;-71
2023/09/19 08:45:37;;;;;;;5.20;2.43;;;18.90;99.90;;;;;;5036544;28;20496;-72
2023/09/19 08:48:21;;;;;;;7.23;2.73;;;18.80;99.90;;;;;;5036716;28;20452;-71
2023/09/19 08:50:52;;;;;;;3.87;2.40;;;18.90;99.90;;;;;;5036718;28;20440;-70
2023/09/19 08:53:27;;;;;;;5.73;2.40;;;19.20;99.90;;;;;;5036500;28;20491;-71
2023/09/19 08:55:56;;;;;;;12.37;2.87;;;19.30;99.90;;;;;;5037412;28;20503;-71
2023/09/19 08:58:27;;;;;;;7.67;2.40;;;19.50;99.90;;;;;;5036821;28;20492;-71
2023/09/19 09:00:55;;;;;;;7.00;2.97;;;19.60;99.90;;;;;;5035955;28;20464;-72
2023/09/19 09:03:22;;;;;;;7.33;2.43;;;19.80;99.90;;;;;;5036157;28;20480;-72
2023/09/19 09:05:52;;;;;;;3.73;2.10;;;19.80;99.90;;;;;;5036097;28;20468;-71
2023/09/19 09:08:21;;;;;;;11.57;2.73;;;19.50;99.90;;;;;;5036755;28;20954;-72
2023/09/19 09:10:48;;;;;;;8.03;2.17;;;19.50;99.90;;;;;;5035238;28;20465;-72
2023/09/19 09:13:15;;;;;;;7.53;2.83;;;19.50;99.90;;;;;;5036519;28;20480;-72
2023/09/19 09:15:44;;;;;;;9.60;2.93;;;19.30;99.90;;;;;;5037031;28;20456;-72
2023/09/19 09:18:11;;;;;;;6.30;3.00;;;19.30;99.90;;;;;;5039544;28;20944;-72
2023/09/19 09:20:38;;;;;;;5.23;2.73;;;19.40;99.90;;;;;;5040587;28;20483;-71
2023/09/19 09:23:06;;;;;;;6.17;2.40;;;19.30;99.90;;;;;;5040747;28;20472;-72
2023/09/19 09:25:54;;;;;;;7.83;2.50;;;19.20;99.90;;;;;;5042996;28;20464;-72
2023/09/19 09:28:22;;;;;;;8.63;2.60;;;19.30;99.90;;;;;;5060623;28;21027;-70
2023/09/19 09:30:50;;;;;;;7.37;2.77;;;19.40;99.90;;;;;;5064330;28;20428;-71
2023/09/19 09:33:16;;;;;;;7.10;2.37;;;19.60;99.90;;;;;;5062800;28;20464;-72
2023/09/19 09:35:52;;;;;;;7.00;2.20;;;19.60;99.90;;;;;;5059132;28;20478;-73
2023/09/19 09:38:25;;;;;;;6.17;2.73;;;19.70;99.90;;;;;;5058145;28;20476;-74
2023/09/19 09:40:58;;;;;;;4.20;2.10;;;19.70;99.90;;;;;;5056959;28;20468;-72
2023/09/19 09:43:46;;;;;;;5.43;2.40;;;19.70;99.90;;;;;;5054322;28;20452;-72
2023/09/19 09:49:18;;;;;;;6.27;2.80;;;19.90;99.90;;;;;;5046345;28;20424;-74
2023/09/19 09:51:48;;;;;;;5.37;2.60;;;19.70;99.90;;;;;;5040304;28;20460;-72
2023/09/19 09:54:19;;;;;;;6.20;2.20;;;19.40;99.90;;;;;;5049039;28;20439;-73
2023/09/19 09:56:59;;;;;;;11.30;2.53;;;19.40;99.90;;;;;;5055945;28;20472;-73
2023/09/19 09:59:50;;;;;;;6.07;2.20;;;19.40;99.90;;;;;;5061364;28;20489;-72
2023/09/19 10:02:24;;;;;;;7.80;2.67;;;19.60;99.90;;;;;;5048575;28;20479;-73
2023/09/19 10:04:59;;;;;;;8.70;2.37;;;19.60;99.90;;;;;;5047879;28;20540;-73
2023/09/19 10:07:32;;;;;;;10.80;3.20;;;19.70;99.90;;;;;;5046419;28;20445;-73
2023/09/19 10:10:12;;;;;;;6.53;2.77;;;20.10;99.90;;;;;;5039146;28;20464;-71
2023/09/19 10:12:45;;;;;;;9.67;3.50;;;20.20;99.90;;;;;;5038571;28;20488;-73
2023/09/19 10:15:15;;;;;;;5.73;2.50;;;20.00;99.90;;;;;;5039942;28;21253;-73
2023/09/19 10:17:45;;;;;;;6.00;2.60;;;19.80;99.90;;;;;;5039650;28;20506;-72
2023/09/19 10:20:32;;;;;;;5.97;2.40;;;20.00;99.90;;;;;;5038848;28;20480;-72
2023/09/19 10:23:01;;;;;;;6.97;2.40;;;20.10;99.90;;;;;;5039074;28;20879;-73
2023/09/19 10:25:30;;;;;;;7.47;2.60;;;20.40;99.90;;;;;;5039826;28;20461;-72
2023/09/19 10:28:02;;;;;;;10.90;3.07;;;20.40;99.90;;;;;;5038836;28;20479;-73
2023/09/19 10:30:30;;;;;;;7.20;2.60;;;20.40;99.90;;;;;;5039240;28;20458;-72
2023/09/19 10:33:01;;;;;;;10.17;3.20;;;20.50;99.90;;;;;;5038877;28;20556;-72
2023/09/19 10:35:28;;;;;;;5.70;2.40;;;20.60;99.90;;;;;;5037982;28;20460;-71
2023/09/19 10:37:57;;;;;;;4.37;2.57;;;20.30;99.90;;;;;;5038825;28;20530;-73
2023/09/19 10:40:30;;;;;;;4.40;2.30;;;20.30;99.90;;;;;;5037511;28;20908;-75
2023/09/19 10:43:04;;;;;;;13.37;3.20;;;20.20;99.90;;;;;;5047951;28;20241;-74
2023/09/19 10:45:32;;;;;;;9.20;2.40;;;20.30;99.90;;;;;;5043197;28;20449;-73
2023/09/19 10:47:59;;;;;;;12.90;3.00;;;20.20;99.90;;;;;;5046464;28;20480;-75
2023/09/19 10:50:28;;;;;;;8.47;2.90;;;20.10;99.90;;;;;;5046753;28;20476;-73
2023/09/19 10:53:00;;;;;;;12.67;3.20;;;20.40;99.90;;;;;;5053682;28;20484;-73
2023/09/19 10:55:30;;;;;;;5.53;2.60;;;20.70;99.90;;;;;;5044635;28;20468;-73
2023/09/19 10:57:57;;;;;;;11.50;3.10;;;20.80;99.90;;;;;;5040344;28;20457;-72
2023/09/19 11:00:27;;;;;;;6.33;3.00;;;20.80;99.90;;;;;;5042214;28;20500;-74
2023/09/19 11:03:21;;;;;;;10.50;2.77;;;20.50;99.90;;;;;;5039758;28;20985;-73
2023/09/19 11:06:09;;;;;;;6.60;2.67;;;20.70;99.90;;;;;;5038304;28;20515;-72
2023/09/19 11:09:15;;;;;;;8.30;2.53;;;20.90;99.90;;;;;;5037888;28;20450;-73
2023/09/19 11:11:50;;;;;;;6.60;2.43;;;21.10;99.90;;;;;;5036249;28;20513;-73
2023/09/19 11:14:40;;;;;;;7.10;3.00;;;21.20;99.90;;;;;;5037626;28;20972;-74
2023/09/19 11:17:37;;;;;;;9.23;2.70;;;21.50;99.90;;;;;;5036913;28;20462;-73
2023/09/19 11:20:35;;;;;;;6.57;2.50;;;21.90;99.90;;;;;;5037931;28;20486;-74
2023/09/19 11:23:26;;;;;;;6.77;2.40;;;21.60;99.90;;;;;;5041530;28;20484;-74
2023/09/19 11:25:55;;;;;;;9.50;3.10;;;21.20;99.90;;;;;;5054169;28;20536;-72
2023/09/19 11:28:30;;;;;;;11.57;3.30;;;20.90;99.90;;;;;;5054351;28;20437;-73
2023/09/19 11:30:58;;;;;;;6.67;2.50;;;20.80;99.90;;;;;;5041603;28;20979;-73
2023/09/19 11:33:31;;;;;;;11.60;3.13;;;20.70;99.90;;;;;;5057333;28;20432;-74
2023/09/19 11:36:04;;;;;;;11.80;3.40;;;21.10;99.90;;;;;;5055746;28;20423;-73
2023/09/19 11:39:01;;;;;;;6.40;2.40;;;21.50;99.90;;;;;;5058377;28;20437;-72
2023/09/19 11:41:41;;;;;;;9.17;3.03;;;21.80;99.90;;;;;;5045719;28;20484;-74
2023/09/19 11:44:33;;;;;;;6.10;2.53;;;22.00;99.90;;;;;;5036779;28;20506;-73
2023/09/19 11:47:03;;;;;;;8.70;2.83;;;22.30;99.90;;;;;;5034269;28;20471;-73
2023/09/19 11:49:32;;;;;;;6.40;2.67;;;22.00;99.90;;;;;;5038188;28;20477;-73
2023/09/19 11:52:01;;;;;;;7.83;2.73;;;22.10;99.90;;;;;;5037568;28;20464;-75
2023/09/19 11:54:31;;;;;;;4.20;2.40;;;22.00;99.90;;;;;;5038146;28;20460;-73
2023/09/19 11:56:58;;;;;;;7.40;2.87;;;21.80;99.90;;;;;;5037630;28;20453;-73
2023/09/19 11:59:28;;;;;;;4.93;2.43;;;21.70;99.90;;;;;;5037624;28;20972;-73
2023/09/19 12:01:57;;;;;;;5.97;2.97;;;21.90;99.90;;;;;;5037643;28;20464;-73
2023/09/19 12:04:37;;;;;;;4.23;3.10;;;21.70;99.90;;;;;;5038315;28;20463;-72
2023/09/19 12:07:05;;;;;;;7.63;2.57;;;21.40;99.90;;;;;;5038172;28;20540;-73
2023/09/19 12:09:32;;;;;;;7.57;2.47;;;21.10;99.90;;;;;;5038540;28;20445;-72
2023/09/19 12:11:59;;;;;;;8.83;2.97;;;21.20;99.90;;;;;;5039967;28;20508;-75
2023/09/19 12:14:28;;;;;;;9.93;2.50;;;20.90;99.90;;;;;;5039851;28;20829;-75
2023/09/19 12:16:56;;;;;;;3.60;2.40;;;21.10;99.90;;;;;;5038347;28;20449;-74
2023/09/19 12:19:23;;;;;;;7.90;2.53;;;21.30;99.90;;;;;;5039215;28;20576;-75
2023/09/19 12:21:59;;;;;;;5.50;2.53;;;21.80;99.90;;;;;;5035322;28;20506;-74
2023/09/19 12:24:29;;;;;;;8.33;2.93;;;22.20;99.90;;;;;;5038742;28;20497;-75
2023/09/19 12:27:01;;;;;;;9.63;2.97;;;22.50;99.90;;;;;;5037984;28;20500;-75
2023/09/19 12:29:29;;;;;;;8.30;2.80;;;22.70;99.90;;;;;;5038200;28;20448;-74
2023/09/19 12:31:58;;;;;;;5.53;2.40;;;22.60;99.90;;;;;;5037361;28;20464;-76
2023/09/19 12:34:28;;;;;;;7.50;3.40;;;22.50;99.90;;;;;;5036747;28;20460;-75
2023/09/19 12:37:13;;;;;;;8.53;2.73;;;22.50;99.90;;;;;;5036545;28;20445;-75
2023/09/19 12:39:41;;;;;;;10.90;3.30;;;22.30;99.90;;;;;;5036614;28;20480;-75
2023/09/19 12:42:10;;;;;;;9.47;3.03;;;22.50;99.90;;;;;;5036145;28;20555;-72
2023/09/19 12:44:38;;;;;;;6.83;2.27;;;22.40;99.90;;;;;;5037773;28;20456;-74
2023/09/19 12:47:13;;;;;;;5.27;2.33;;;22.10;99.90;;;;;;5037673;28;20468;-74
2023/09/19 12:50:14;;;;;;;6.70;2.97;;;22.20;99.90;;;;;;5036230;28;20460;-73
2023/09/19 12:52:45;;;;;;;3.93;2.00;;;22.50;99.90;;;;;;5039762;28;20482;-74
2023/09/19 12:55:24;;;;;;;2.40;2.20;;;22.50;99.90;;;;;;5040557;28;21293;-72
2023/09/19 12:58:09;;;;;;;6.23;2.73;;;22.40;99.90;;;;;;5041298;28;20964;-74
2023/09/19 13:00:37;;;;;;;7.40;2.40;;;22.50;99.90;;;;;;5041787;28;20595;-73
2023/09/19 13:03:15;;;;;;;8.03;3.10;;;22.30;99.90;;;;;;5040925;28;20484;-73
2023/09/19 13:05:53;;;;;;;5.07;2.27;;;22.10;99.90;;;;;;5041091;28;20444;-74